sensor_id;sensor_type;location;lat;lon;timestamp;temperature;humidity
17740;DHT22;8990;33.226;-97.150;2022-11-18T00:02:31;11.90;99.90
17740;DHT22;8990;33.226;-97.150;2022-11-18T00:05:03;11.90;99.90
17740;DHT22;8990;33.226;-97.150;2022-11-18T00:07:33;11.80;99.90
17740;DHT22;8990;33.226;-97.150;2022-11-18T00:10:02;11.80;99.90
17740;DHT22;8990;33.226;-97.150;2022-11-18T00:12:31;11.80;99.90
17740;DHT22;8990;33.226;-97.150;2022-11-18T00:15:17;11.70;99.90
17740;DHT22;8990;33.226;-97.150;2022-11-18T00:17:47;11.70;99.90
17740;DHT22;8990;33.226;-97.150;2022-11-18T00:20:18;11.70;99.90
17740;DHT22;8990;33.226;-97.150;2022-11-18T00:22:47;11.60;99.90
17740;DHT22;8990;33.226;-97.150;2022-11-18T00:25:16;11.60;99.90
17740;DHT22;8990;33.226;-97.150;2022-11-18T00:27:46;11.50;99.90
17740;DHT22;8990;33.226;-97.150;2022-11-18T00:30:16;11.50;99.90
17740;DHT22;8990;33.226;-97.150;2022-11-18T00:32:45;11.50;99.90
17740;DHT22;8990;33.226;-97.150;2022-11-18T00:35:17;11.40;99.90
17740;DHT22;8990;33.226;-97.150;2022-11-18T00:37:47;11.40;99.90
17740;DHT22;8990;33.226;-97.150;2022-11-18T00:40:17;11.40;99.90
17740;DHT22;8990;33.226;-97.150;2022-11-18T00:42:46;11.40;99.90
17740;DHT22;8990;33.226;-97.150;2022-11-18T00:45:18;11.40;99.90
17740;DHT22;8990;33.226;-97.150;2022-11-18T00:47:47;11.30;99.90
17740;DHT22;8990;33.226;-97.150;2022-11-18T00:50:19;11.30;99.90
17740;DHT22;8990;33.226;-97.150;2022-11-18T00:52:51;11.30;99.90
17740;DHT22;8990;33.226;-97.150;2022-11-18T00:55:21;11.30;99.90
17740;DHT22;8990;33.226;-97.150;2022-11-18T00:57:53;11.30;99.90
17740;DHT22;8990;33.226;-97.150;2022-11-18T01:00:23;11.20;99.90
17740;DHT22;8990;33.226;-97.150;2022-11-18T01:02:53;11.20;99.90
17740;DHT22;8990;33.226;-97.150;2022-11-18T01:05:24;11.20;99.90
17740;DHT22;8990;33.226;-97.150;2022-11-18T01:07:53;11.20;99.90
17740;DHT22;8990;33.226;-97.150;2022-11-18T01:10:22;11.20;99.90
17740;DHT22;8990;33.226;-97.150;2022-11-18T01:12:52;11.10;99.90
17740;DHT22;8990;33.226;-97.150;2022-11-18T01:15:39;11.20;99.90
17740;DHT22;8990;33.226;-97.150;2022-11-18T01:18:09;11.20;99.90
17740;DHT22;8990;33.226;-97.150;2022-11-18T01:20:40;11.10;99.90
17740;DHT22;8990;33.226;-97.150;2022-11-18T01:23:10;11.10;99.90
17740;DHT22;8990;33.226;-97.150;2022-11-18T01:25:41;11.10;99.90
17740;DHT22;8990;33.226;-97.150;2022-11-18T01:28:11;11.00;99.90
17740;DHT22;8990;33.226;-97.150;2022-11-18T01:30:43;11.00;99.90
17740;DHT22;8990;33.226;-97.150;2022-11-18T01:33:13;10.90;99.90
17740;DHT22;8990;33.226;-97.150;2022-11-18T01:35:43;10.90;99.90
17740;DHT22;8990;33.226;-97.150;2022-11-18T01:38:14;10.90;99.90
17740;DHT22;8990;33.226;-97.150;2022-11-18T01:40:43;10.90;99.90
17740;DHT22;8990;33.226;-97.150;2022-11-18T01:43:14;10.80;99.90
17740;DHT22;8990;33.226;-97.150;2022-11-18T01:45:46;10.80;99.90
17740;DHT22;8990;33.226;-97.150;2022-11-18T01:48:18;10.80;99.90
17740;DHT22;8990;33.226;-97.150;2022-11-18T01:50:54;10.80;99.90
17740;DHT22;8990;33.226;-97.150;2022-11-18T01:53:27;10.70;99.90
17740;DHT22;8990;33.226;-97.150;2022-11-18T01:56:01;10.70;99.90
17740;DHT22;8990;33.226;-97.150;2022-11-18T01:58:34;10.70;99.90
17740;DHT22;8990;33.226;-97.150;2022-11-18T02:01:06;10.70;99.90
17740;DHT22;8990;33.226;-97.150;2022-11-18T02:03:36;10.70;99.90
17740;DHT22;8990;33.226;-97.150;2022-11-18T02:06:09;10.60;99.90
17740;DHT22;8990;33.226;-97.150;2022-11-18T02:08:41;10.60;99.90
17740;DHT22;8990;33.226;-97.150;2022-11-18T02:11:13;10.60;99.90
17740;DHT22;8990;33.226;-97.150;2022-11-18T02:13:57;10.50;99.90
17740;DHT22;8990;33.226;-97.150;2022-11-18T02:16:35;10.50;99.90
17740;DHT22;8990;33.226;-97.150;2022-11-18T02:19:20;10.50;99.90
17740;DHT22;8990;33.226;-97.150;2022-11-18T02:22:04;10.50;99.90
17740;DHT22;8990;33.226;-97.150;2022-11-18T02:24:42;10.50;99.90
17740;DHT22;8990;33.226;-97.150;2022-11-18T02:30:31;10.40;99.90
17740;DHT22;8990;33.226;-97.150;2022-11-18T02:33:05;10.40;99.90
17740;DHT22;8990;33.226;-97.150;2022-11-18T02:35:39;10.40;99.90
17740;DHT22;8990;33.226;-97.150;2022-11-18T02:38:12;10.40;99.90
17740;DHT22;8990;33.226;-97.150;2022-11-18T02:40:45;10.30;99.90
17740;DHT22;8990;33.226;-97.150;2022-11-18T02:43:17;10.30;99.90
17740;DHT22;8990;33.226;-97.150;2022-11-18T02:45:52;10.30;99.90
17740;DHT22;8990;33.226;-97.150;2022-11-18T02:48:25;10.20;99.90
17740;DHT22;8990;33.226;-97.150;2022-11-18T02:51:00;10.20;99.90
17740;DHT22;8990;33.226;-97.150;2022-11-18T02:53:37;10.20;99.90
17740;DHT22;8990;33.226;-97.150;2022-11-18T02:56:10;10.20;99.90
17740;DHT22;8990;33.226;-97.150;2022-11-18T02:58:41;10.20;99.90
17740;DHT22;8990;33.226;-97.150;2022-11-18T03:01:18;10.10;99.90
17740;DHT22;8990;33.226;-97.150;2022-11-18T03:03:49;10.20;99.90
17740;DHT22;8990;33.226;-97.150;2022-11-18T03:06:26;10.10;99.90
17740;DHT22;8990;33.226;-97.150;2022-11-18T03:09:04;10.10;99.90
17740;DHT22;8990;33.226;-97.150;2022-11-18T03:11:45;10.00;99.90
17740;DHT22;8990;33.226;-97.150;2022-11-18T03:14:23;10.00;99.90
17740;DHT22;8990;33.226;-97.150;2022-11-18T03:16:59;10.00;99.90
17740;DHT22;8990;33.226;-97.150;2022-11-18T03:19:45;10.00;99.90
17740;DHT22;8990;33.226;-97.150;2022-11-18T03:22:24;10.00;99.90
17740;DHT22;8990;33.226;-97.150;2022-11-18T03:25:00;10.00;99.90
17740;DHT22;8990;33.226;-97.150;2022-11-18T03:27:35;10.00;99.90
17740;DHT22;8990;33.226;-97.150;2022-11-18T03:30:07;9.90;99.90
17740;DHT22;8990;33.226;-97.150;2022-11-18T03:32:42;9.90;99.90
17740;DHT22;8990;33.226;-97.150;2022-11-18T03:35:17;9.90;99.90
17740;DHT22;8990;33.226;-97.150;2022-11-18T03:37:51;9.90;99.90
17740;DHT22;8990;33.226;-97.150;2022-11-18T03:40:26;9.80;99.90
17740;DHT22;8990;33.226;-97.150;2022-11-18T03:43:01;9.80;99.90
17740;DHT22;8990;33.226;-97.150;2022-11-18T03:45:35;9.80;99.90
17740;DHT22;8990;33.226;-97.150;2022-11-18T03:48:11;9.70;99.90
17740;DHT22;8990;33.226;-97.150;2022-11-18T03:50:44;9.70;99.90
17740;DHT22;8990;33.226;-97.150;2022-11-18T03:53:17;9.60;99.90
17740;DHT22;8990;33.226;-97.150;2022-11-18T03:55:51;9.70;99.90
17740;DHT22;8990;33.226;-97.150;2022-11-18T03:58:26;9.60;99.90
17740;DHT22;8990;33.226;-97.150;2022-11-18T04:01:03;9.60;99.90
17740;DHT22;8990;33.226;-97.150;2022-11-18T04:03:38;9.60;99.90
17740;DHT22;8990;33.226;-97.150;2022-11-18T04:06:15;9.50;99.90
17740;DHT22;8990;33.226;-97.150;2022-11-18T04:08:54;9.50;99.90
17740;DHT22;8990;33.226;-97.150;2022-11-18T04:11:30;9.50;99.90
17740;DHT22;8990;33.226;-97.150;2022-11-18T04:14:19;9.40;99.90
17740;DHT22;8990;33.226;-97.150;2022-11-18T04:16:50;9.40;99.90
17740;DHT22;8990;33.226;-97.150;2022-11-18T04:19:22;9.40;99.90
17740;DHT22;8990;33.226;-97.150;2022-11-18T04:21:52;9.40;99.90
17740;DHT22;8990;33.226;-97.150;2022-11-18T04:24:20;9.40;99.90
17740;DHT22;8990;33.226;-97.150;2022-11-18T04:26:51;9.40;99.90
17740;DHT22;8990;33.226;-97.150;2022-11-18T04:29:20;9.30;99.90
17740;DHT22;8990;33.226;-97.150;2022-11-18T04:31:49;9.30;99.90
17740;DHT22;8990;33.226;-97.150;2022-11-18T04:34:18;9.30;99.90
17740;DHT22;8990;33.226;-97.150;2022-11-18T04:36:49;9.30;99.90
17740;DHT22;8990;33.226;-97.150;2022-11-18T04:39:18;9.30;99.90
17740;DHT22;8990;33.226;-97.150;2022-11-18T04:41:49;9.30;99.90
17740;DHT22;8990;33.226;-97.150;2022-11-18T04:44:26;9.30;99.90
17740;DHT22;8990;33.226;-97.150;2022-11-18T04:46:57;9.20;99.90
17740;DHT22;8990;33.226;-97.150;2022-11-18T04:49:27;9.20;99.90
17740;DHT22;8990;33.226;-97.150;2022-11-18T04:51:59;9.20;99.90
17740;DHT22;8990;33.226;-97.150;2022-11-18T04:54:29;9.20;99.90
17740;DHT22;8990;33.226;-97.150;2022-11-18T04:57:00;9.10;99.90
17740;DHT22;8990;33.226;-97.150;2022-11-18T04:59:29;9.10;99.90
17740;DHT22;8990;33.226;-97.150;2022-11-18T05:01:59;9.00;99.90
17740;DHT22;8990;33.226;-97.150;2022-11-18T05:04:29;9.00;99.90
17740;DHT22;8990;33.226;-97.150;2022-11-18T05:07:03;9.00;99.90
17740;DHT22;8990;33.226;-97.150;2022-11-18T05:09:34;9.00;99.90
17740;DHT22;8990;33.226;-97.150;2022-11-18T05:12:04;9.00;99.90
17740;DHT22;8990;33.226;-97.150;2022-11-18T05:14:51;9.00;99.90
17740;DHT22;8990;33.226;-97.150;2022-11-18T05:17:20;9.00;99.90
17740;DHT22;8990;33.226;-97.150;2022-11-18T05:19:49;9.00;99.90
17740;DHT22;8990;33.226;-97.150;2022-11-18T05:22:22;9.00;99.90
17740;DHT22;8990;33.226;-97.150;2022-11-18T05:24:52;9.00;99.90
17740;DHT22;8990;33.226;-97.150;2022-11-18T05:27:21;9.00;99.90
17740;DHT22;8990;33.226;-97.150;2022-11-18T05:29:51;9.00;99.90
17740;DHT22;8990;33.226;-97.150;2022-11-18T05:32:21;9.00;99.90
17740;DHT22;8990;33.226;-97.150;2022-11-18T05:34:51;8.90;99.90
17740;DHT22;8990;33.226;-97.150;2022-11-18T05:37:23;8.90;99.90
17740;DHT22;8990;33.226;-97.150;2022-11-18T05:39:54;8.90;99.90
17740;DHT22;8990;33.226;-97.150;2022-11-18T05:42:23;8.90;99.90
17740;DHT22;8990;33.226;-97.150;2022-11-18T05:45:25;8.80;99.90
17740;DHT22;8990;33.226;-97.150;2022-11-18T05:47:54;8.80;99.90
17740;DHT22;8990;33.226;-97.150;2022-11-18T05:50:30;8.80;99.90
17740;DHT22;8990;33.226;-97.150;2022-11-18T05:53:02;8.70;99.90
17740;DHT22;8990;33.226;-97.150;2022-11-18T05:55:37;8.70;99.90
17740;DHT22;8990;33.226;-97.150;2022-11-18T05:58:07;8.70;99.90
17740;DHT22;8990;33.226;-97.150;2022-11-18T06:00:36;8.70;99.90
17740;DHT22;8990;33.226;-97.150;2022-11-18T06:03:10;8.70;99.90
17740;DHT22;8990;33.226;-97.150;2022-11-18T06:05:41;8.70;99.90
17740;DHT22;8990;33.226;-97.150;2022-11-18T06:08:14;8.60;99.90
17740;DHT22;8990;33.226;-97.150;2022-11-18T06:10:48;8.60;99.90
17740;DHT22;8990;33.226;-97.150;2022-11-18T06:13:20;8.50;99.90
17740;DHT22;8990;33.226;-97.150;2022-11-18T06:15:52;8.50;99.90
17740;DHT22;8990;33.226;-97.150;2022-11-18T06:18:24;8.50;99.90
17740;DHT22;8990;33.226;-97.150;2022-11-18T06:20:56;8.50;99.90
17740;DHT22;8990;33.226;-97.150;2022-11-18T06:23:30;8.50;99.90
17740;DHT22;8990;33.226;-97.150;2022-11-18T06:26:00;8.50;99.90
17740;DHT22;8990;33.226;-97.150;2022-11-18T06:28:31;8.40;99.90
17740;DHT22;8990;33.226;-97.150;2022-11-18T06:31:01;8.40;99.90
17740;DHT22;8990;33.226;-97.150;2022-11-18T06:33:30;8.40;99.90
17740;DHT22;8990;33.226;-97.150;2022-11-18T06:35:59;8.30;99.90
17740;DHT22;8990;33.226;-97.150;2022-11-18T06:38:31;8.30;99.90
17740;DHT22;8990;33.226;-97.150;2022-11-18T06:41:00;8.20;99.90
17740;DHT22;8990;33.226;-97.150;2022-11-18T06:43:29;8.20;99.90
17740;DHT22;8990;33.226;-97.150;2022-11-18T06:46:10;8.20;99.90
17740;DHT22;8990;33.226;-97.150;2022-11-18T06:48:58;8.20;99.90
17740;DHT22;8990;33.226;-97.150;2022-11-18T06:51:29;8.20;99.90
17740;DHT22;8990;33.226;-97.150;2022-11-18T06:53:59;8.20;99.90
17740;DHT22;8990;33.226;-97.150;2022-11-18T06:56:30;8.10;99.90
17740;DHT22;8990;33.226;-97.150;2022-11-18T06:59:00;8.10;99.90
17740;DHT22;8990;33.226;-97.150;2022-11-18T07:01:30;8.10;99.90
17740;DHT22;8990;33.226;-97.150;2022-11-18T07:04:01;8.10;99.90
17740;DHT22;8990;33.226;-97.150;2022-11-18T07:06:32;8.10;99.90
17740;DHT22;8990;33.226;-97.150;2022-11-18T07:09:05;8.00;99.90
17740;DHT22;8990;33.226;-97.150;2022-11-18T07:11:35;8.00;99.90
17740;DHT22;8990;33.226;-97.150;2022-11-18T07:14:07;7.90;99.90
17740;DHT22;8990;33.226;-97.150;2022-11-18T07:16:37;7.90;99.90
17740;DHT22;8990;33.226;-97.150;2022-11-18T07:19:08;7.90;99.90
17740;DHT22;8990;33.226;-97.150;2022-11-18T07:21:38;7.80;99.90
17740;DHT22;8990;33.226;-97.150;2022-11-18T07:24:12;7.80;99.90
17740;DHT22;8990;33.226;-97.150;2022-11-18T07:26:43;7.70;99.90
17740;DHT22;8990;33.226;-97.150;2022-11-18T07:29:12;7.70;99.90
17740;DHT22;8990;33.226;-97.150;2022-11-18T07:31:42;7.70;99.90
17740;DHT22;8990;33.226;-97.150;2022-11-18T07:34:12;7.60;99.90
17740;DHT22;8990;33.226;-97.150;2022-11-18T07:36:43;7.50;99.90
17740;DHT22;8990;33.226;-97.150;2022-11-18T07:39:13;7.50;99.90
17740;DHT22;8990;33.226;-97.150;2022-11-18T07:41:43;7.40;99.90
17740;DHT22;8990;33.226;-97.150;2022-11-18T07:44:14;7.30;99.90
17740;DHT22;8990;33.226;-97.150;2022-11-18T07:46:44;7.20;99.90
17740;DHT22;8990;33.226;-97.150;2022-11-18T07:49:14;7.20;99.90
17740;DHT22;8990;33.226;-97.150;2022-11-18T07:51:43;7.10;99.90
17740;DHT22;8990;33.226;-97.150;2022-11-18T07:54:14;7.10;99.90
17740;DHT22;8990;33.226;-97.150;2022-11-18T07:56:44;7.00;99.90
17740;DHT22;8990;33.226;-97.150;2022-11-18T07:59:13;7.00;99.90
17740;DHT22;8990;33.226;-97.150;2022-11-18T08:01:42;7.00;99.90
17740;DHT22;8990;33.226;-97.150;2022-11-18T08:04:12;6.90;99.90
17740;DHT22;8990;33.226;-97.150;2022-11-18T08:06:41;6.90;99.90
17740;DHT22;8990;33.226;-97.150;2022-11-18T08:09:14;6.90;99.90
17740;DHT22;8990;33.226;-97.150;2022-11-18T08:11:44;6.90;99.90
17740;DHT22;8990;33.226;-97.150;2022-11-18T08:14:13;6.90;99.90
17740;DHT22;8990;33.226;-97.150;2022-11-18T08:16:42;6.80;99.90
17740;DHT22;8990;33.226;-97.150;2022-11-18T08:19:12;6.80;99.90
17740;DHT22;8990;33.226;-97.150;2022-11-18T08:21:42;6.70;99.90
17740;DHT22;8990;33.226;-97.150;2022-11-18T08:24:13;6.70;99.90
17740;DHT22;8990;33.226;-97.150;2022-11-18T08:26:43;6.60;99.90
17740;DHT22;8990;33.226;-97.150;2022-11-18T08:29:12;6.50;99.90
17740;DHT22;8990;33.226;-97.150;2022-11-18T08:31:42;6.40;99.90
17740;DHT22;8990;33.226;-97.150;2022-11-18T08:34:11;6.30;99.90
17740;DHT22;8990;33.226;-97.150;2022-11-18T08:36:41;6.30;99.90
17740;DHT22;8990;33.226;-97.150;2022-11-18T08:39:13;6.20;99.90
17740;DHT22;8990;33.226;-97.150;2022-11-18T08:41:43;6.20;99.90
17740;DHT22;8990;33.226;-97.150;2022-11-18T08:44:14;6.10;99.90
17740;DHT22;8990;33.226;-97.150;2022-11-18T08:46:45;5.90;99.90
17740;DHT22;8990;33.226;-97.150;2022-11-18T08:49:14;5.90;99.90
17740;DHT22;8990;33.226;-97.150;2022-11-18T08:51:43;6.00;99.90
17740;DHT22;8990;33.226;-97.150;2022-11-18T08:54:14;5.90;99.90
17740;DHT22;8990;33.226;-97.150;2022-11-18T08:56:44;5.80;99.90
17740;DHT22;8990;33.226;-97.150;2022-11-18T08:59:17;5.90;99.90
17740;DHT22;8990;33.226;-97.150;2022-11-18T09:01:46;5.80;99.90
17740;DHT22;8990;33.226;-97.150;2022-11-18T09:04:20;5.70;99.90
17740;DHT22;8990;33.226;-97.150;2022-11-18T09:06:49;5.80;99.90
17740;DHT22;8990;33.226;-97.150;2022-11-18T09:09:21;5.70;99.90
17740;DHT22;8990;33.226;-97.150;2022-11-18T09:11:51;5.60;99.90
17740;DHT22;8990;33.226;-97.150;2022-11-18T09:14:20;5.60;99.90
17740;DHT22;8990;33.226;-97.150;2022-11-18T09:16:50;5.60;99.90
17740;DHT22;8990;33.226;-97.150;2022-11-18T09:19:20;5.60;99.90
17740;DHT22;8990;33.226;-97.150;2022-11-18T09:21:49;5.50;99.90
17740;DHT22;8990;33.226;-97.150;2022-11-18T09:24:21;5.50;99.90
17740;DHT22;8990;33.226;-97.150;2022-11-18T09:26:51;5.40;99.90
17740;DHT22;8990;33.226;-97.150;2022-11-18T09:29:20;5.40;99.90
17740;DHT22;8990;33.226;-97.150;2022-11-18T09:31:52;5.30;99.90
17740;DHT22;8990;33.226;-97.150;2022-11-18T09:34:22;5.30;99.90
17740;DHT22;8990;33.226;-97.150;2022-11-18T09:36:52;5.40;99.90
17740;DHT22;8990;33.226;-97.150;2022-11-18T09:39:24;5.40;99.90
17740;DHT22;8990;33.226;-97.150;2022-11-18T09:42:00;5.30;99.90
17740;DHT22;8990;33.226;-97.150;2022-11-18T09:44:43;5.20;99.90
17740;DHT22;8990;33.226;-97.150;2022-11-18T09:47:24;5.30;99.90
17740;DHT22;8990;33.226;-97.150;2022-11-18T09:49:57;5.40;99.90
17740;DHT22;8990;33.226;-97.150;2022-11-18T09:52:28;5.40;99.90
17740;DHT22;8990;33.226;-97.150;2022-11-18T09:55:03;5.40;99.90
17740;DHT22;8990;33.226;-97.150;2022-11-18T09:57:43;5.40;99.90
17740;DHT22;8990;33.226;-97.150;2022-11-18T10:00:15;5.40;99.90
17740;DHT22;8990;33.226;-97.150;2022-11-18T10:02:55;5.50;99.90
17740;DHT22;8990;33.226;-97.150;2022-11-18T10:05:28;5.50;99.90
17740;DHT22;8990;33.226;-97.150;2022-11-18T10:08:11;5.50;99.90
17740;DHT22;8990;33.226;-97.150;2022-11-18T10:10:53;5.50;99.90
17740;DHT22;8990;33.226;-97.150;2022-11-18T10:13:33;5.60;99.90
17740;DHT22;8990;33.226;-97.150;2022-11-18T10:16:17;5.60;99.90
17740;DHT22;8990;33.226;-97.150;2022-11-18T10:18:54;5.50;99.90
17740;DHT22;8990;33.226;-97.150;2022-11-18T10:21:35;5.50;99.90
17740;DHT22;8990;33.226;-97.150;2022-11-18T10:24:11;5.50;99.90
17740;DHT22;8990;33.226;-97.150;2022-11-18T10:26:43;5.40;99.90
17740;DHT22;8990;33.226;-97.150;2022-11-18T10:29:14;5.40;99.90
17740;DHT22;8990;33.226;-97.150;2022-11-18T10:31:54;5.50;99.90
17740;DHT22;8990;33.226;-97.150;2022-11-18T10:34:24;5.40;99.90
17740;DHT22;8990;33.226;-97.150;2022-11-18T10:37:02;5.40;99.90
17740;DHT22;8990;33.226;-97.150;2022-11-18T10:39:32;5.40;99.90
17740;DHT22;8990;33.226;-97.150;2022-11-18T10:42:06;5.30;99.90
17740;DHT22;8990;33.226;-97.150;2022-11-18T10:44:37;5.20;99.90
17740;DHT22;8990;33.226;-97.150;2022-11-18T10:47:22;5.10;99.90
17740;DHT22;8990;33.226;-97.150;2022-11-18T10:49:56;5.00;99.90
17740;DHT22;8990;33.226;-97.150;2022-11-18T10:52:27;4.90;99.90
17740;DHT22;8990;33.226;-97.150;2022-11-18T10:55:17;4.90;99.90
17740;DHT22;8990;33.226;-97.150;2022-11-18T10:57:52;4.70;99.90
17740;DHT22;8990;33.226;-97.150;2022-11-18T11:00:35;4.70;99.90
17740;DHT22;8990;33.226;-97.150;2022-11-18T11:03:27;4.80;99.90
17740;DHT22;8990;33.226;-97.150;2022-11-18T11:06:31;4.80;99.90
17740;DHT22;8990;33.226;-97.150;2022-11-18T11:09:09;4.80;99.90
17740;DHT22;8990;33.226;-97.150;2022-11-18T11:11:56;4.70;99.90
17740;DHT22;8990;33.226;-97.150;2022-11-18T11:14:33;4.70;99.90
17740;DHT22;8990;33.226;-97.150;2022-11-18T11:17:09;4.80;99.90
17740;DHT22;8990;33.226;-97.150;2022-11-18T11:19:47;4.70;99.90
17740;DHT22;8990;33.226;-97.150;2022-11-18T11:22:18;4.70;99.90
17740;DHT22;8990;33.226;-97.150;2022-11-18T11:24:47;4.80;99.90
17740;DHT22;8990;33.226;-97.150;2022-11-18T11:27:30;4.60;99.90
17740;DHT22;8990;33.226;-97.150;2022-11-18T11:30:17;4.50;99.90
17740;DHT22;8990;33.226;-97.150;2022-11-18T11:36:08;4.40;99.90
17740;DHT22;8990;33.226;-97.150;2022-11-18T11:38:52;4.50;99.90
17740;DHT22;8990;33.226;-97.150;2022-11-18T11:41:29;4.40;99.90
17740;DHT22;8990;33.226;-97.150;2022-11-18T11:44:31;4.40;99.90
17740;DHT22;8990;33.226;-97.150;2022-11-18T11:47:15;4.50;99.90
17740;DHT22;8990;33.226;-97.150;2022-11-18T11:50:12;4.40;99.90
17740;DHT22;8990;33.226;-97.150;2022-11-18T11:52:56;4.30;99.90
17740;DHT22;8990;33.226;-97.150;2022-11-18T11:55:34;4.20;99.90
17740;DHT22;8990;33.226;-97.150;2022-11-18T11:58:14;4.30;99.90
17740;DHT22;8990;33.226;-97.150;2022-11-18T12:00:57;4.30;99.90
17740;DHT22;8990;33.226;-97.150;2022-11-18T12:03:50;4.20;99.90
17740;DHT22;8990;33.226;-97.150;2022-11-18T12:06:22;4.30;99.90
17740;DHT22;8990;33.226;-97.150;2022-11-18T12:09:01;4.30;99.90
17740;DHT22;8990;33.226;-97.150;2022-11-18T12:11:36;4.40;99.90
17740;DHT22;8990;33.226;-97.150;2022-11-18T12:14:15;4.50;99.90
17740;DHT22;8990;33.226;-97.150;2022-11-18T12:16:54;4.60;99.90
17740;DHT22;8990;33.226;-97.150;2022-11-18T12:19:29;4.60;99.90
17740;DHT22;8990;33.226;-97.150;2022-11-18T12:21:59;4.70;99.90
17740;DHT22;8990;33.226;-97.150;2022-11-18T12:24:34;4.80;99.90
17740;DHT22;8990;33.226;-97.150;2022-11-18T12:27:10;4.80;99.90
17740;DHT22;8990;33.226;-97.150;2022-11-18T12:29:52;4.90;99.90
17740;DHT22;8990;33.226;-97.150;2022-11-18T12:32:31;5.00;99.90
17740;DHT22;8990;33.226;-97.150;2022-11-18T12:35:22;5.00;99.90
17740;DHT22;8990;33.226;-97.150;2022-11-18T12:38:00;5.00;99.90
17740;DHT22;8990;33.226;-97.150;2022-11-18T12:40:41;5.10;99.90
17740;DHT22;8990;33.226;-97.150;2022-11-18T12:46:51;5.00;99.90
17740;DHT22;8990;33.226;-97.150;2022-11-18T12:52:49;5.00;99.90
17740;DHT22;8990;33.226;-97.150;2022-11-18T12:55:31;5.00;99.90
17740;DHT22;8990;33.226;-97.150;2022-11-18T12:58:00;5.10;99.90
17740;DHT22;8990;33.226;-97.150;2022-11-18T13:00:33;5.20;99.90
17740;DHT22;8990;33.226;-97.150;2022-11-18T13:03:25;5.20;99.90
17740;DHT22;8990;33.226;-97.150;2022-11-18T13:06:02;5.20;99.90
17740;DHT22;8990;33.226;-97.150;2022-11-18T13:08:35;5.20;99.90
17740;DHT22;8990;33.226;-97.150;2022-11-18T13:11:13;5.20;99.90
17740;DHT22;8990;33.226;-97.150;2022-11-18T13:14:02;5.20;99.90
17740;DHT22;8990;33.226;-97.150;2022-11-18T13:16:50;5.10;99.90
17740;DHT22;8990;33.226;-97.150;2022-11-18T13:19:37;5.20;99.90
17740;DHT22;8990;33.226;-97.150;2022-11-18T13:22:16;5.10;99.90
17740;DHT22;8990;33.226;-97.150;2022-11-18T13:25:19;5.10;99.90
17740;DHT22;8990;33.226;-97.150;2022-11-18T13:27:55;5.10;99.90
17740;DHT22;8990;33.226;-97.150;2022-11-18T13:30:29;5.10;99.90
17740;DHT22;8990;33.226;-97.150;2022-11-18T13:32:58;5.10;99.90
17740;DHT22;8990;33.226;-97.150;2022-11-18T13:35:28;5.00;99.90
17740;DHT22;8990;33.226;-97.150;2022-11-18T13:37:59;5.00;99.90
17740;DHT22;8990;33.226;-97.150;2022-11-18T13:40:37;5.00;99.90
17740;DHT22;8990;33.226;-97.150;2022-11-18T13:43:27;5.00;99.90
17740;DHT22;8990;33.226;-97.150;2022-11-18T13:45:58;5.00;99.90
17740;DHT22;8990;33.226;-97.150;2022-11-18T13:48:28;5.00;99.90
17740;DHT22;8990;33.226;-97.150;2022-11-18T13:50:59;5.00;99.90
17740;DHT22;8990;33.226;-97.150;2022-11-18T13:53:30;5.00;99.90
17740;DHT22;8990;33.226;-97.150;2022-11-18T13:56:06;5.10;99.90
17740;DHT22;8990;33.226;-97.150;2022-11-18T13:58:44;4.90;99.90
17740;DHT22;8990;33.226;-97.150;2022-11-18T14:01:21;4.90;99.90
17740;DHT22;8990;33.226;-97.150;2022-11-18T14:03:54;4.90;99.90
17740;DHT22;8990;33.226;-97.150;2022-11-18T14:06:28;4.90;99.90
17740;DHT22;8990;33.226;-97.150;2022-11-18T14:09:17;4.90;99.90
17740;DHT22;8990;33.226;-97.150;2022-11-18T14:12:00;4.90;99.90
17740;DHT22;8990;33.226;-97.150;2022-11-18T14:14:31;4.90;99.90
17740;DHT22;8990;33.226;-97.150;2022-11-18T14:17:15;5.00;99.90
17740;DHT22;8990;33.226;-97.150;2022-11-18T14:19:47;5.00;99.90
17740;DHT22;8990;33.226;-97.150;2022-11-18T14:22:18;5.00;99.90
17740;DHT22;8990;33.226;-97.150;2022-11-18T14:24:55;5.10;99.90
17740;DHT22;8990;33.226;-97.150;2022-11-18T14:27:34;5.10;99.90
17740;DHT22;8990;33.226;-97.150;2022-11-18T14:30:28;5.00;99.90
17740;DHT22;8990;33.226;-97.150;2022-11-18T14:33:19;5.00;99.90
17740;DHT22;8990;33.226;-97.150;2022-11-18T14:35:52;5.00;99.90
17740;DHT22;8990;33.226;-97.150;2022-11-18T14:38:28;5.10;99.90
17740;DHT22;8990;33.226;-97.150;2022-11-18T14:41:01;5.10;99.90
17740;DHT22;8990;33.226;-97.150;2022-11-18T14:43:32;5.10;99.90
17740;DHT22;8990;33.226;-97.150;2022-11-18T14:46:04;5.20;99.90
17740;DHT22;8990;33.226;-97.150;2022-11-18T14:48:34;5.20;99.90
17740;DHT22;8990;33.226;-97.150;2022-11-18T14:51:05;5.30;99.90
17740;DHT22;8990;33.226;-97.150;2022-11-18T14:53:33;5.30;99.90
17740;DHT22;8990;33.226;-97.150;2022-11-18T14:56:11;5.30;99.90
17740;DHT22;8990;33.226;-97.150;2022-11-18T14:58:44;5.40;99.90
17740;DHT22;8990;33.226;-97.150;2022-11-18T15:01:14;5.50;99.90
17740;DHT22;8990;33.226;-97.150;2022-11-18T15:03:43;5.50;99.90
17740;DHT22;8990;33.226;-97.150;2022-11-18T15:06:15;5.50;99.90
17740;DHT22;8990;33.226;-97.150;2022-11-18T15:08:45;5.60;99.90
17740;DHT22;8990;33.226;-97.150;2022-11-18T15:11:16;5.60;99.90
17740;DHT22;8990;33.226;-97.150;2022-11-18T15:13:48;5.80;99.90
17740;DHT22;8990;33.226;-97.150;2022-11-18T15:16:20;5.80;99.90
17740;DHT22;8990;33.226;-97.150;2022-11-18T15:18:51;5.80;99.90
17740;DHT22;8990;33.226;-97.150;2022-11-18T15:21:22;5.90;99.90
17740;DHT22;8990;33.226;-97.150;2022-11-18T15:23:52;6.00;99.90
17740;DHT22;8990;33.226;-97.150;2022-11-18T15:26:23;5.80;99.90
17740;DHT22;8990;33.226;-97.150;2022-11-18T15:28:54;5.90;99.90
17740;DHT22;8990;33.226;-97.150;2022-11-18T15:31:25;5.90;99.90
17740;DHT22;8990;33.226;-97.150;2022-11-18T15:33:55;5.80;99.90
17740;DHT22;8990;33.226;-97.150;2022-11-18T15:36:26;5.90;99.90
17740;DHT22;8990;33.226;-97.150;2022-11-18T15:38:57;6.00;99.90
17740;DHT22;8990;33.226;-97.150;2022-11-18T15:41:28;6.10;99.90
17740;DHT22;8990;33.226;-97.150;2022-11-18T15:44:00;6.10;99.90
17740;DHT22;8990;33.226;-97.150;2022-11-18T15:46:30;6.20;99.90
17740;DHT22;8990;33.226;-97.150;2022-11-18T15:48:59;6.30;99.90
17740;DHT22;8990;33.226;-97.150;2022-11-18T15:51:30;6.50;99.90
17740;DHT22;8990;33.226;-97.150;2022-11-18T15:53:59;6.50;99.90
17740;DHT22;8990;33.226;-97.150;2022-11-18T15:56:30;6.60;99.90
17740;DHT22;8990;33.226;-97.150;2022-11-18T15:59:02;6.60;99.90
17740;DHT22;8990;33.226;-97.150;2022-11-18T16:01:34;6.70;99.90
17740;DHT22;8990;33.226;-97.150;2022-11-18T16:04:04;6.70;99.90
17740;DHT22;8990;33.226;-97.150;2022-11-18T16:06:35;6.70;99.90
17740;DHT22;8990;33.226;-97.150;2022-11-18T16:09:05;6.70;99.90
17740;DHT22;8990;33.226;-97.150;2022-11-18T16:11:35;6.70;99.90
17740;DHT22;8990;33.226;-97.150;2022-11-18T16:14:23;6.80;99.90
17740;DHT22;8990;33.226;-97.150;2022-11-18T16:16:54;7.00;99.90
17740;DHT22;8990;33.226;-97.150;2022-11-18T16:19:26;7.10;99.90
17740;DHT22;8990;33.226;-97.150;2022-11-18T16:21:59;7.10;99.90
17740;DHT22;8990;33.226;-97.150;2022-11-18T16:24:28;7.10;99.90